Walberton, United Kingdom
Current Conditions -  °F | °C
As of 4:20 PM on Saturday 25 Oct 2014 (Local Time) from EGKA Reporting Station
Few Clouds Few Clouds  
Wind Chill: 15°   Ceiling: Unl
Heat Index: 15°   Visibility: 6mi
Dew Point:   Wind: 13mph
Humidity: 63%   Direction: 240°WSW
Pressure: 30.09"   Gusts: NA
Location:  50.84°N, 0.62°W
Report Text: EGKA 251520Z 24011KT 9999 FEW040 15/08 Q1019
Loading
Personal Weather Stations






























Interactive Weather Map
Tropical Storm Tracking
New forecast layout! Learn more

10-Day Weather Forecast

Advertisements
Track Severe Weather on mobile